sensor_id;sensor_type;location;lat;lon;timestamp;pressure;altitude;pressure_sealevel;temperature;humidity
61318;BME280;47201;40.428;-8.436;2022-10-30T00:01:21;100868.44;;;15.58;100.00
61318;BME280;47201;40.428;-8.436;2022-10-30T00:03:22;100860.63;;;15.53;100.00
61318;BME280;47201;40.428;-8.436;2022-10-30T00:05:22;100865.06;;;15.51;100.00
61318;BME280;47201;40.428;-8.436;2022-10-30T00:07:23;100866.84;;;15.49;100.00
61318;BME280;47201;40.428;-8.436;2022-10-30T00:09:24;100861.69;;;15.45;100.00
61318;BME280;47201;40.428;-8.436;2022-10-30T00:11:24;100863.44;;;15.44;100.00
61318;BME280;47201;40.428;-8.436;2022-10-30T00:13:25;100859.97;;;15.42;100.00
61318;BME280;47201;40.428;-8.436;2022-10-30T00:15:26;100852.13;;;15.39;100.00
61318;BME280;47201;40.428;-8.436;2022-10-30T00:17:27;100858.19;;;15.43;100.00
61318;BME280;47201;40.428;-8.436;2022-10-30T00:19:27;100869.63;;;15.42;100.00
61318;BME280;47201;40.428;-8.436;2022-10-30T00:21:28;100866.16;;;15.39;100.00
61318;BME280;47201;40.428;-8.436;2022-10-30T00:23:29;100872.38;;;15.37;100.00
61318;BME280;47201;40.428;-8.436;2022-10-30T00:25:29;100868.94;;;15.33;100.00
61318;BME280;47201;40.428;-8.436;2022-10-30T00:27:30;100866.34;;;15.30;100.00
61318;BME280;47201;40.428;-8.436;2022-10-30T00:29:31;100862.81;;;15.31;100.00
61318;BME280;47201;40.428;-8.436;2022-10-30T00:31:32;100860.22;;;15.30;100.00
61318;BME280;47201;40.428;-8.436;2022-10-30T00:33:32;100862.91;;;15.27;100.00
61318;BME280;47201;40.428;-8.436;2022-10-30T00:35:33;100862.03;;;15.25;100.00
61318;BME280;47201;40.428;-8.436;2022-10-30T00:37:34;100863.81;;;15.24;100.00
61318;BME280;47201;40.428;-8.436;2022-10-30T00:39:34;100862.09;;;15.23;100.00
61318;BME280;47201;40.428;-8.436;2022-10-30T00:41:36;100871.75;;;15.21;100.00
61318;BME280;47201;40.428;-8.436;2022-10-30T00:43:40;100868.31;;;15.19;100.00
61318;BME280;47201;40.428;-8.436;2022-10-30T00:45:41;100871.84;;;15.16;100.00
61318;BME280;47201;40.428;-8.436;2022-10-30T00:47:45;100880.66;;;15.14;100.00
61318;BME280;47201;40.428;-8.436;2022-10-30T00:51:58;100877.25;;;15.09;100.00
61318;BME280;47201;40.428;-8.436;2022-10-30T00:54:02;100873.78;;;15.06;100.00
61318;BME280;47201;40.428;-8.436;2022-10-30T00:56:06;100869.47;;;15.01;100.00
61318;BME280;47201;40.428;-8.436;2022-10-30T00:58:10;100870.41;;;15.00;100.00
61318;BME280;47201;40.428;-8.436;2022-10-30T01:00:13;100863.41;;;14.97;100.00
61318;BME280;47201;40.428;-8.436;2022-10-30T01:02:16;100868.75;;;14.94;100.00
61318;BME280;47201;40.428;-8.436;2022-10-30T01:04:19;100863.50;;;14.91;100.00
61318;BME280;47201;40.428;-8.436;2022-10-30T01:06:21;100861.78;;;14.90;100.00
61318;BME280;47201;40.428;-8.436;2022-10-30T01:08:23;100861.78;;;14.90;100.00
61318;BME280;47201;40.428;-8.436;2022-10-30T01:10:24;100853.03;;;14.89;100.00
61318;BME280;47201;40.428;-8.436;2022-10-30T01:12:26;100845.97;;;14.90;100.00
61318;BME280;47201;40.428;-8.436;2022-10-30T01:14:27;100837.19;;;14.91;100.00
61318;BME280;47201;40.428;-8.436;2022-10-30T01:24:13;100835.81;;;14.68;100.00
61318;BME280;47201;40.428;-8.436;2022-10-30T01:26:28;100835.88;;;14.62;100.00
61318;BME280;47201;40.428;-8.436;2022-10-30T01:31:12;100842.22;;;14.52;100.00
61318;BME280;47201;40.428;-8.436;2022-10-30T01:35:51;100841.47;;;14.42;100.00
61318;BME280;47201;40.428;-8.436;2022-10-30T01:37:57;100837.13;;;14.39;100.00
61318;BME280;47201;40.428;-8.436;2022-10-30T01:40:13;100837.16;;;14.38;100.00
61318;BME280;47201;40.428;-8.436;2022-10-30T01:42:49;100835.41;;;14.37;100.00
61318;BME280;47201;40.428;-8.436;2022-10-30T01:44:54;100838.09;;;14.32;100.00
61318;BME280;47201;40.428;-8.436;2022-10-30T01:47:06;100841.63;;;14.31;100.00
61318;BME280;47201;40.428;-8.436;2022-10-30T01:49:56;100831.94;;;14.36;100.00
61318;BME280;47201;40.428;-8.436;2022-10-30T01:56:40;100825.72;;;14.40;100.00
61318;BME280;47201;40.428;-8.436;2022-10-30T02:00:57;100833.56;;;14.42;100.00
61318;BME280;47201;40.428;-8.436;2022-10-30T02:02:58;100825.72;;;14.40;100.00
61318;BME280;47201;40.428;-8.436;2022-10-30T02:05:02;100817.78;;;14.42;100.00
61318;BME280;47201;40.428;-8.436;2022-10-30T02:07:03;100819.47;;;14.48;100.00
61318;BME280;47201;40.428;-8.436;2022-10-30T02:09:09;100823.69;;;14.58;100.00
61318;BME280;47201;40.428;-8.436;2022-10-30T02:11:15;100830.59;;;14.64;100.00
61318;BME280;47201;40.428;-8.436;2022-10-30T02:13:16;100825.34;;;14.65;100.00
61318;BME280;47201;40.428;-8.436;2022-10-30T02:15:17;100830.63;;;14.62;100.00
61318;BME280;47201;40.428;-8.436;2022-10-30T02:17:18;100835.06;;;14.58;100.00
61318;BME280;47201;40.428;-8.436;2022-10-30T02:19:19;100837.59;;;14.65;100.00
61318;BME280;47201;40.428;-8.436;2022-10-30T02:21:20;100830.56;;;14.68;100.00
61318;BME280;47201;40.428;-8.436;2022-10-30T02:23:21;100835.72;;;14.74;100.00
61318;BME280;47201;40.428;-8.436;2022-10-30T02:25:23;100830.44;;;14.76;100.00
61318;BME280;47201;40.428;-8.436;2022-10-30T02:27:25;100836.53;;;14.78;100.00
61318;BME280;47201;40.428;-8.436;2022-10-30T02:29:25;100827.00;;;14.72;100.00
61318;BME280;47201;40.428;-8.436;2022-10-30T02:31:26;100824.44;;;14.65;100.00
61318;BME280;47201;40.428;-8.436;2022-10-30T02:33:28;100816.59;;;14.63;100.00
61318;BME280;47201;40.428;-8.436;2022-10-30T02:35:29;100817.63;;;14.54;100.00
61318;BME280;47201;40.428;-8.436;2022-10-30T02:37:30;100825.63;;;14.47;100.00
61318;BME280;47201;40.428;-8.436;2022-10-30T02:39:35;100830.91;;;14.45;100.00
61318;BME280;47201;40.428;-8.436;2022-10-30T02:41:37;100835.25;;;14.48;100.00
61318;BME280;47201;40.428;-8.436;2022-10-30T02:43:38;100829.13;;;14.46;100.00
61318;BME280;47201;40.428;-8.436;2022-10-30T02:45:39;100830.06;;;14.43;100.00
61318;BME280;47201;40.428;-8.436;2022-10-30T02:47:40;100830.94;;;14.43;100.00
61318;BME280;47201;40.428;-8.436;2022-10-30T02:49:40;100829.22;;;14.39;100.00
61318;BME280;47201;40.428;-8.436;2022-10-30T02:51:41;100824.03;;;14.36;100.00
61318;BME280;47201;40.428;-8.436;2022-10-30T02:53:42;100818.84;;;14.32;100.00
61318;BME280;47201;40.428;-8.436;2022-10-30T02:55:44;100816.22;;;14.32;100.00
61318;BME280;47201;40.428;-8.436;2022-10-30T02:57:44;100811.72;;;14.40;100.00
61318;BME280;47201;40.428;-8.436;2022-10-30T02:59:46;100824.84;;;14.38;100.00
61318;BME280;47201;40.428;-8.436;2022-10-30T03:01:47;100831.88;;;14.39;100.00
61318;BME280;47201;40.428;-8.436;2022-10-30T03:03:48;100831.81;;;14.42;100.00
61318;BME280;47201;40.428;-8.436;2022-10-30T03:05:48;100837.03;;;14.47;100.00
61318;BME280;47201;40.428;-8.436;2022-10-30T03:07:49;100835.19;;;14.52;100.00
61318;BME280;47201;40.428;-8.436;2022-10-30T03:09:50;100835.16;;;14.54;100.00
61318;BME280;47201;40.428;-8.436;2022-10-30T03:11:53;100835.06;;;14.58;100.00
61318;BME280;47201;40.428;-8.436;2022-10-30T03:13:56;100833.22;;;14.64;100.00
61318;BME280;47201;40.428;-8.436;2022-10-30T03:16:05;100819.13;;;14.69;100.00
61318;BME280;47201;40.428;-8.436;2022-10-30T03:18:06;100806.88;;;14.68;100.00
61318;BME280;47201;40.428;-8.436;2022-10-30T03:20:14;100805.13;;;14.67;100.00
61318;BME280;47201;40.428;-8.436;2022-10-30T03:22:15;100801.69;;;14.62;100.00
61318;BME280;47201;40.428;-8.436;2022-10-30T03:24:16;100793.00;;;14.57;100.00
61318;BME280;47201;40.428;-8.436;2022-10-30T03:26:19;100800.94;;;14.54;100.00
61318;BME280;47201;40.428;-8.436;2022-10-30T03:28:31;100799.28;;;14.50;100.00
61318;BME280;47201;40.428;-8.436;2022-10-30T03:30:32;100801.97;;;14.45;100.00
61318;BME280;47201;40.428;-8.436;2022-10-30T03:32:35;100793.34;;;14.37;100.00
61318;BME280;47201;40.428;-8.436;2022-10-30T03:34:36;100789.06;;;14.30;100.00
61318;BME280;47201;40.428;-8.436;2022-10-30T03:36:40;100785.66;;;14.24;100.00
61318;BME280;47201;40.428;-8.436;2022-10-30T03:38:41;100791.84;;;14.20;100.00
61318;BME280;47201;40.428;-8.436;2022-10-30T03:40:43;100785.75;;;14.17;100.00
61318;BME280;47201;40.428;-8.436;2022-10-30T03:42:44;100787.56;;;14.15;100.00
61318;BME280;47201;40.428;-8.436;2022-10-30T03:44:45;100786.78;;;14.08;100.00
61318;BME280;47201;40.428;-8.436;2022-10-30T03:46:46;100782.47;;;14.02;100.00
61318;BME280;47201;40.428;-8.436;2022-10-30T03:48:55;100786.94;;;13.97;100.00
61318;BME280;47201;40.428;-8.436;2022-10-30T03:50:57;100787.06;;;13.88;100.00
61318;BME280;47201;40.428;-8.436;2022-10-30T03:52:58;100785.47;;;13.77;100.00
61318;BME280;47201;40.428;-8.436;2022-10-30T03:55:02;100790.78;;;13.70;100.00
61318;BME280;47201;40.428;-8.436;2022-10-30T03:57:03;100800.47;;;13.66;100.00
61318;BME280;47201;40.428;-8.436;2022-10-30T03:59:12;100794.31;;;13.69;100.00
61318;BME280;47201;40.428;-8.436;2022-10-30T04:01:15;100805.69;;;13.68;100.00
61318;BME280;47201;40.428;-8.436;2022-10-30T04:03:20;100812.75;;;13.64;100.00
61318;BME280;47201;40.428;-8.436;2022-10-30T04:05:26;100815.41;;;13.62;100.00
61318;BME280;47201;40.428;-8.436;2022-10-30T04:07:28;100816.25;;;13.64;100.00
61318;BME280;47201;40.428;-8.436;2022-10-30T04:09:29;100808.31;;;13.68;100.00
61318;BME280;47201;40.428;-8.436;2022-10-30T04:11:30;100813.53;;;13.72;100.00
61318;BME280;47201;40.428;-8.436;2022-10-30T04:13:32;100825.69;;;13.79;100.00
61318;BME280;47201;40.428;-8.436;2022-10-30T04:15:33;100820.44;;;13.81;100.00
61318;BME280;47201;40.428;-8.436;2022-10-30T04:17:34;100816.91;;;13.82;100.00
61318;BME280;47201;40.428;-8.436;2022-10-30T04:19:37;100815.97;;;13.86;100.00
61318;BME280;47201;40.428;-8.436;2022-10-30T04:21:38;100819.44;;;13.90;100.00
61318;BME280;47201;40.428;-8.436;2022-10-30T04:23:39;100825.47;;;13.98;100.00
61318;BME280;47201;40.428;-8.436;2022-10-30T04:25:40;100831.44;;;14.09;100.00
61318;BME280;47201;40.428;-8.436;2022-10-30T04:27:42;100838.34;;;14.18;100.00
61318;BME280;47201;40.428;-8.436;2022-10-30T04:29:43;100834.78;;;14.21;100.00
61318;BME280;47201;40.428;-8.436;2022-10-30T04:31:44;100834.78;;;14.21;100.00
61318;BME280;47201;40.428;-8.436;2022-10-30T04:33:45;100834.72;;;14.24;100.00
61318;BME280;47201;40.428;-8.436;2022-10-30T04:35:46;100838.25;;;14.24;100.00
61318;BME280;47201;40.428;-8.436;2022-10-30T04:37:52;100836.44;;;14.28;100.00
61318;BME280;47201;40.428;-8.436;2022-10-30T04:39:53;100845.22;;;14.27;100.00
61318;BME280;47201;40.428;-8.436;2022-10-30T04:41:59;100837.25;;;14.30;100.00
61318;BME280;47201;40.428;-8.436;2022-10-30T04:44:05;100846.88;;;14.31;100.00
61318;BME280;47201;40.428;-8.436;2022-10-30T04:46:06;100843.38;;;14.32;100.00
61318;BME280;47201;40.428;-8.436;2022-10-30T04:48:10;100850.41;;;14.32;100.00
61318;BME280;47201;40.428;-8.436;2022-10-30T04:50:11;100845.19;;;14.28;100.00
61318;BME280;47201;40.428;-8.436;2022-10-30T04:52:12;100854.84;;;14.26;100.00
61318;BME280;47201;40.428;-8.436;2022-10-30T04:54:13;100854.00;;;14.23;100.00
61318;BME280;47201;40.428;-8.436;2022-10-30T04:56:14;100861.09;;;14.18;100.00
61318;BME280;47201;40.428;-8.436;2022-10-30T04:58:16;100856.72;;;14.17;100.00
61318;BME280;47201;40.428;-8.436;2022-10-30T05:00:21;100864.63;;;14.17;100.00
61318;BME280;47201;40.428;-8.436;2022-10-30T05:02:22;100861.16;;;14.15;100.00
61318;BME280;47201;40.428;-8.436;2022-10-30T05:04:22;100868.22;;;14.09;100.00
61318;BME280;47201;40.428;-8.436;2022-10-30T05:06:26;100864.75;;;14.07;100.00
61318;BME280;47201;40.428;-8.436;2022-10-30T05:08:28;100865.66;;;14.05;100.00
61318;BME280;47201;40.428;-8.436;2022-10-30T05:10:32;100862.25;;;13.98;100.00
61318;BME280;47201;40.428;-8.436;2022-10-30T05:12:33;100870.19;;;13.93;100.00
61318;BME280;47201;40.428;-8.436;2022-10-30T05:14:34;100872.91;;;13.87;100.00
61318;BME280;47201;40.428;-8.436;2022-10-30T05:16:34;100873.00;;;13.81;100.00
61318;BME280;47201;40.428;-8.436;2022-10-30T05:18:37;100875.66;;;13.76;100.00
61318;BME280;47201;40.428;-8.436;2022-10-30T05:20:38;100866.06;;;13.72;100.00
61318;BME280;47201;40.428;-8.436;2022-10-30T05:22:39;100872.22;;;13.70;100.00
61318;BME280;47201;40.428;-8.436;2022-10-30T05:24:40;100872.34;;;13.59;100.00
61318;BME280;47201;40.428;-8.436;2022-10-30T05:26:41;100870.69;;;13.52;100.00
61318;BME280;47201;40.428;-8.436;2022-10-30T05:28:42;100865.50;;;13.45;100.00
61318;BME280;47201;40.428;-8.436;2022-10-30T05:30:43;100862.97;;;13.39;100.00
61318;BME280;47201;40.428;-8.436;2022-10-30T05:33:00;100866.47;;;13.33;100.00
61318;BME280;47201;40.428;-8.436;2022-10-30T05:35:02;100866.53;;;13.27;100.00
61318;BME280;47201;40.428;-8.436;2022-10-30T05:37:03;100868.31;;;13.22;100.00
61318;BME280;47201;40.428;-8.436;2022-10-30T05:39:04;100868.41;;;13.17;100.00
61318;BME280;47201;40.428;-8.436;2022-10-30T05:41:14;100864.09;;;13.10;100.00
61318;BME280;47201;40.428;-8.436;2022-10-30T05:43:15;100866.66;;;13.13;100.00
61318;BME280;47201;40.428;-8.436;2022-10-30T05:45:16;100873.63;;;13.19;100.00
61318;BME280;47201;40.428;-8.436;2022-10-30T05:47:18;100873.63;;;13.16;100.00
61318;BME280;47201;40.428;-8.436;2022-10-30T05:49:24;100877.22;;;13.10;100.00
61318;BME280;47201;40.428;-8.436;2022-10-30T05:51:25;100872.88;;;13.06;100.00
61318;BME280;47201;40.428;-8.436;2022-10-30T05:53:32;100868.53;;;13.00;100.00
61318;BME280;47201;40.428;-8.436;2022-10-30T05:55:34;100872.09;;;12.93;100.00
61318;BME280;47201;40.428;-8.436;2022-10-30T05:57:43;100875.66;;;12.88;100.00
61318;BME280;47201;40.428;-8.436;2022-10-30T05:59:44;100871.31;;;12.83;100.00
61318;BME280;47201;40.428;-8.436;2022-10-30T06:01:45;100876.56;;;12.83;100.00
61318;BME280;47201;40.428;-8.436;2022-10-30T06:03:46;100880.00;;;12.92;100.00
61318;BME280;47201;40.428;-8.436;2022-10-30T06:05:47;100875.56;;;12.98;100.00
61318;BME280;47201;40.428;-8.436;2022-10-30T06:07:48;100872.03;;;13.01;100.00
61318;BME280;47201;40.428;-8.436;2022-10-30T06:09:48;100871.19;;;12.99;100.00
61318;BME280;47201;40.428;-8.436;2022-10-30T06:12:07;100872.09;;;12.96;100.00
61318;BME280;47201;40.428;-8.436;2022-10-30T06:14:27;100874.75;;;12.89;100.00
61318;BME280;47201;40.428;-8.436;2022-10-30T06:16:31;100883.53;;;12.84;100.00
61318;BME280;47201;40.428;-8.436;2022-10-30T06:18:44;100874.84;;;12.79;100.00
61318;BME280;47201;40.428;-8.436;2022-10-30T06:20:46;100886.25;;;12.70;100.00
61318;BME280;47201;40.428;-8.436;2022-10-30T06:23:11;100885.50;;;12.59;100.00
61318;BME280;47201;40.428;-8.436;2022-10-30T06:25:22;100885.56;;;12.48;100.00
61318;BME280;47201;40.428;-8.436;2022-10-30T06:27:33;100885.50;;;12.58;100.00
61318;BME280;47201;40.428;-8.436;2022-10-30T06:29:36;100880.25;;;12.58;100.00
61318;BME280;47201;40.428;-8.436;2022-10-30T06:31:37;100879.34;;;12.59;100.00
61318;BME280;47201;40.428;-8.436;2022-10-30T06:33:37;100875.91;;;12.57;100.00
61318;BME280;47201;40.428;-8.436;2022-10-30T06:35:38;100881.19;;;12.50;100.00
61318;BME280;47201;40.428;-8.436;2022-10-30T06:37:46;100878.56;;;12.50;100.00
61318;BME280;47201;40.428;-8.436;2022-10-30T06:39:47;100885.56;;;12.45;100.00
61318;BME280;47201;40.428;-8.436;2022-10-30T06:42:20;100887.34;;;12.43;100.00
61318;BME280;47201;40.428;-8.436;2022-10-30T06:44:31;100887.38;;;12.38;100.00
61318;BME280;47201;40.428;-8.436;2022-10-30T06:46:32;100891.78;;;12.32;100.00
61318;BME280;47201;40.428;-8.436;2022-10-30T06:48:33;100897.91;;;12.31;100.00
61318;BME280;47201;40.428;-8.436;2022-10-30T06:50:34;100896.16;;;12.30;100.00
61318;BME280;47201;40.428;-8.436;2022-10-30T06:52:34;100904.03;;;12.28;100.00
61318;BME280;47201;40.428;-8.436;2022-10-30T06:54:36;100908.41;;;12.25;100.00
61318;BME280;47201;40.428;-8.436;2022-10-30T06:56:56;100904.97;;;12.16;100.00
61318;BME280;47201;40.428;-8.436;2022-10-30T06:59:15;100909.34;;;12.13;100.00
61318;BME280;47201;40.428;-8.436;2022-10-30T07:01:24;100915.44;;;12.19;100.00
61318;BME280;47201;40.428;-8.436;2022-10-30T07:03:43;100913.66;;;12.21;100.00
61318;BME280;47201;40.428;-8.436;2022-10-30T07:05:44;100921.56;;;12.18;100.00
61318;BME280;47201;40.428;-8.436;2022-10-30T07:07:45;100918.97;;;12.14;100.00
61318;BME280;47201;40.428;-8.436;2022-10-30T07:09:45;100922.47;;;12.11;100.00
61318;BME280;47201;40.428;-8.436;2022-10-30T07:11:47;100923.34;;;12.10;100.00
61318;BME280;47201;40.428;-8.436;2022-10-30T07:14:20;100925.06;;;12.17;100.00
61318;BME280;47201;40.428;-8.436;2022-10-30T07:16:32;100924.19;;;12.18;100.00
61318;BME280;47201;40.428;-8.436;2022-10-30T07:18:34;100926.75;;;12.21;100.00
61318;BME280;47201;40.428;-8.436;2022-10-30T07:20:35;100925.06;;;12.20;100.00
61318;BME280;47201;40.428;-8.436;2022-10-30T07:22:37;100927.63;;;12.27;100.00
61318;BME280;47201;40.428;-8.436;2022-10-30T07:24:38;100924.09;;;12.31;100.00
61318;BME280;47201;40.428;-8.436;2022-10-30T07:26:59;100926.66;;;12.45;100.00
61318;BME280;47201;40.428;-8.436;2022-10-30T07:29:19;100933.66;;;12.46;100.00
61318;BME280;47201;40.428;-8.436;2022-10-30T07:31:37;100933.63;;;12.44;100.00
61318;BME280;47201;40.428;-8.436;2022-10-30T07:33:57;100942.38;;;12.49;100.00
61318;BME280;47201;40.428;-8.436;2022-10-30T07:36:13;100937.97;;;12.51;100.00
61318;BME280;47201;40.428;-8.436;2022-10-30T07:38:25;100942.31;;;12.57;100.00
61318;BME280;47201;40.428;-8.436;2022-10-30T07:40:31;100944.94;;;12.60;100.00
61318;BME280;47201;40.428;-8.436;2022-10-30T07:42:40;100938.72;;;12.70;100.00
61318;BME280;47201;40.428;-8.436;2022-10-30T07:44:59;100938.56;;;12.92;100.00
61318;BME280;47201;40.428;-8.436;2022-10-30T07:47:07;100941.72;;;13.33;100.00
61318;BME280;47201;40.428;-8.436;2022-10-30T07:49:27;100937.84;;;14.44;100.00
61318;BME280;47201;40.428;-8.436;2022-10-30T07:51:33;100935.47;;;15.42;100.00
61318;BME280;47201;40.428;-8.436;2022-10-30T07:53:34;100934.44;;;16.40;100.00
61318;BME280;47201;40.428;-8.436;2022-10-30T07:55:35;100935.59;;;17.41;100.00
61318;BME280;47201;40.428;-8.436;2022-10-30T07:57:48;100940.69;;;18.70;100.00
61318;BME280;47201;40.428;-8.436;2022-10-30T07:59:55;100949.00;;;19.92;100.00
61318;BME280;47201;40.428;-8.436;2022-10-30T08:02:13;100958.91;;;21.02;100.00
61318;BME280;47201;40.428;-8.436;2022-10-30T08:04:37;100955.97;;;22.12;100.00
61318;BME280;47201;40.428;-8.436;2022-10-30T08:06:49;100963.91;;;23.07;100.00
61318;BME280;47201;40.428;-8.436;2022-10-30T08:08:50;100971.69;;;23.82;100.00
61318;BME280;47201;40.428;-8.436;2022-10-30T08:10:58;100980.63;;;24.48;100.00
61318;BME280;47201;40.428;-8.436;2022-10-30T08:12:58;100979.63;;;25.13;100.00
61318;BME280;47201;40.428;-8.436;2022-10-30T08:14:59;100990.22;;;25.76;100.00
61318;BME280;47201;40.428;-8.436;2022-10-30T08:17:00;100988.44;;;26.34;100.00
61318;BME280;47201;40.428;-8.436;2022-10-30T08:19:01;101001.78;;;26.63;100.00
61318;BME280;47201;40.428;-8.436;2022-10-30T08:21:02;100999.91;;;26.07;100.00
61318;BME280;47201;40.428;-8.436;2022-10-30T08:23:03;100996.03;;;24.91;100.00
61318;BME280;47201;40.428;-8.436;2022-10-30T08:25:06;101000.50;;;23.93;100.00
61318;BME280;47201;40.428;-8.436;2022-10-30T08:27:07;101005.91;;;23.21;100.00
61318;BME280;47201;40.428;-8.436;2022-10-30T08:29:09;101004.06;;;23.58;100.00
61318;BME280;47201;40.428;-8.436;2022-10-30T08:31:09;101003.28;;;24.41;100.00
61318;BME280;47201;40.428;-8.436;2022-10-30T08:33:30;101008.22;;;24.15;100.00
61318;BME280;47201;40.428;-8.436;2022-10-30T08:35:58;101001.66;;;22.61;100.00
61318;BME280;47201;40.428;-8.436;2022-10-30T08:38:00;101003.91;;;21.50;100.00
61318;BME280;47201;40.428;-8.436;2022-10-30T08:40:03;101016.78;;;20.96;100.00
61318;BME280;47201;40.428;-8.436;2022-10-30T08:42:11;101002.84;;;21.54;100.00
61318;BME280;47201;40.428;-8.436;2022-10-30T08:44:16;101010.78;;;22.75;100.00
61318;BME280;47201;40.428;-8.436;2022-10-30T08:46:53;101010.78;;;24.17;100.00
61318;BME280;47201;40.428;-8.436;2022-10-30T08:48:54;101001.06;;;24.81;100.00
61318;BME280;47201;40.428;-8.436;2022-10-30T08:50:58;101007.00;;;25.33;100.00
61318;BME280;47201;40.428;-8.436;2022-10-30T08:53:13;101008.41;;;26.00;100.00
61318;BME280;47201;40.428;-8.436;2022-10-30T08:55:14;101008.53;;;26.41;100.00
61318;BME280;47201;40.428;-8.436;2022-10-30T08:57:16;101016.97;;;26.77;100.00
61318;BME280;47201;40.428;-8.436;2022-10-30T08:59:17;101017.44;;;26.84;100.00
61318;BME280;47201;40.428;-8.436;2022-10-30T09:01:19;101023.28;;;27.18;100.00
61318;BME280;47201;40.428;-8.436;2022-10-30T09:03:38;101026.22;;;27.81;100.00
61318;BME280;47201;40.428;-8.436;2022-10-30T09:06:08;101015.16;;;28.61;100.00
61318;BME280;47201;40.428;-8.436;2022-10-30T09:08:27;101028.78;;;28.84;100.00
61318;BME280;47201;40.428;-8.436;2022-10-30T09:10:44;101032.44;;;28.83;100.00
61318;BME280;47201;40.428;-8.436;2022-10-30T09:12:46;101036.63;;;28.50;100.00
61318;BME280;47201;40.428;-8.436;2022-10-30T09:14:47;101037.53;;;28.12;100.00
61318;BME280;47201;40.428;-8.436;2022-10-30T09:16:48;101034.72;;;28.13;100.00
61318;BME280;47201;40.428;-8.436;2022-10-30T09:18:52;101033.00;;;27.99;100.00
61318;BME280;47201;40.428;-8.436;2022-10-30T09:20:53;101037.47;;;27.86;100.00
61318;BME280;47201;40.428;-8.436;2022-10-30T09:22:54;101031.63;;;28.07;100.00
61318;BME280;47201;40.428;-8.436;2022-10-30T09:24:55;101036.97;;;28.32;100.00
61318;BME280;47201;40.428;-8.436;2022-10-30T09:27:19;101039.75;;;27.79;100.00
61318;BME280;47201;40.428;-8.436;2022-10-30T09:29:23;101039.53;;;27.69;100.00
61318;BME280;47201;40.428;-8.436;2022-10-30T09:31:37;101040.09;;;28.13;100.00
61318;BME280;47201;40.428;-8.436;2022-10-30T09:33:42;101041.19;;;28.24;100.00
61318;BME280;47201;40.428;-8.436;2022-10-30T09:36:05;101043.03;;;28.60;100.00
61318;BME280;47201;40.428;-8.436;2022-10-30T09:38:06;101036.97;;;28.32;100.00
61318;BME280;47201;40.428;-8.436;2022-10-30T09:40:10;101033.81;;;28.39;100.00
61318;BME280;47201;40.428;-8.436;2022-10-30T09:54:35;101026.59;;;28.89;100.00
61318;BME280;47201;40.428;-8.436;2022-10-30T09:56:53;101027.75;;;29.22;100.00
61318;BME280;47201;40.428;-8.436;2022-10-30T10:01:39;101031.72;;;29.05;100.00
61318;BME280;47201;40.428;-8.436;2022-10-30T10:06:18;101028.59;;;30.05;100.00
61318;BME280;47201;40.428;-8.436;2022-10-30T10:08:40;101042.94;;;30.74;98.56
61318;BME280;47201;40.428;-8.436;2022-10-30T10:11:14;101032.78;;;30.32;98.54
61318;BME280;47201;40.428;-8.436;2022-10-30T10:13:27;101035.97;;;30.37;99.11
61318;BME280;47201;40.428;-8.436;2022-10-30T10:15:49;101042.22;;;30.49;97.23
61318;BME280;47201;40.428;-8.436;2022-10-30T10:17:54;101035.13;;;30.37;96.90
61318;BME280;47201;40.428;-8.436;2022-10-30T10:19:59;101031.19;;;30.18;96.63
61318;BME280;47201;40.428;-8.436;2022-10-30T10:22:02;101026.16;;;30.14;100.00
61318;BME280;47201;40.428;-8.436;2022-10-30T10:24:15;101032.41;;;30.48;98.01
61318;BME280;47201;40.428;-8.436;2022-10-30T10:26:30;101024.84;;;30.08;100.00
61318;BME280;47201;40.428;-8.436;2022-10-30T10:40:39;101029.09;;;29.52;100.00
61318;BME280;47201;40.428;-8.436;2022-10-30T10:42:49;101030.63;;;29.79;100.00
61318;BME280;47201;40.428;-8.436;2022-10-30T10:45:15;101032.16;;;29.23;100.00
61318;BME280;47201;40.428;-8.436;2022-10-30T10:50:16;101021.22;;;28.89;100.00
61318;BME280;47201;40.428;-8.436;2022-10-30T10:52:37;101012.09;;;28.55;100.00
61318;BME280;47201;40.428;-8.436;2022-10-30T10:54:46;101013.22;;;28.76;100.00
61318;BME280;47201;40.428;-8.436;2022-10-30T10:56:50;101014.94;;;28.77;100.00
61318;BME280;47201;40.428;-8.436;2022-10-30T10:58:55;101015.16;;;28.74;100.00
61318;BME280;47201;40.428;-8.436;2022-10-30T11:00:57;101004.00;;;28.55;100.00
61318;BME280;47201;40.428;-8.436;2022-10-30T11:03:09;101008.50;;;29.16;100.00
61318;BME280;47201;40.428;-8.436;2022-10-30T11:07:22;100997.38;;;29.09;100.00
61318;BME280;47201;40.428;-8.436;2022-10-30T11:09:25;100998.75;;;29.26;100.00
61318;BME280;47201;40.428;-8.436;2022-10-30T11:11:29;100995.16;;;29.38;100.00
61318;BME280;47201;40.428;-8.436;2022-10-30T11:13:36;100994.72;;;28.96;100.00
61318;BME280;47201;40.428;-8.436;2022-10-30T11:18:06;100987.69;;;28.82;100.00
61318;BME280;47201;40.428;-8.436;2022-10-30T11:20:17;100988.22;;;28.87;100.00
61318;BME280;47201;40.428;-8.436;2022-10-30T11:22:30;100986.41;;;28.75;100.00
61318;BME280;47201;40.428;-8.436;2022-10-30T11:24:33;100986.56;;;28.60;100.00
61318;BME280;47201;40.428;-8.436;2022-10-30T11:26:34;100984.94;;;28.71;100.00
61318;BME280;47201;40.428;-8.436;2022-10-30T11:28:41;100979.81;;;28.92;100.00
61318;BME280;47201;40.428;-8.436;2022-10-30T11:30:44;100985.09;;;29.05;100.00
61318;BME280;47201;40.428;-8.436;2022-10-30T11:32:45;100967.66;;;28.86;100.00
61318;BME280;47201;40.428;-8.436;2022-10-30T11:34:46;100967.66;;;28.86;100.00
61318;BME280;47201;40.428;-8.436;2022-10-30T11:36:59;100965.50;;;28.54;100.00
61318;BME280;47201;40.428;-8.436;2022-10-30T11:39:16;100963.88;;;28.27;100.00